Time;durP1;ratioP1;P1;durP2;ratioP2;P2;SDS_P1;SDS_P2;PMS_P1;PMS_P2;Temp;Humidity;BMP_temperature;BMP_pressure;BME280_temperature;BME280_humidity;BME280_pressure;Samples;Min_cycle;Max_cycle;Signal;HPM_P1;HPM_P2
2021/07/18 00:02:04;;;;;;;32.87;27.23;;;17.60;99.90;;;19.06;76.80;94580.13;5026333;28;20198;-73
2021/07/18 00:04:30;;;;;;;31.23;27.53;;;17.60;99.90;;;19.06;76.74;94580.94;5029967;28;21572;-74
2021/07/18 00:06:56;;;;;;;34.07;27.57;;;17.70;99.90;;;19.02;76.88;94579.13;5026952;28;20198;-75
2021/07/18 00:09:22;;;;;;;30.33;26.87;;;17.60;99.90;;;19.09;77.00;94580.34;5026153;28;20192;-74
2021/07/18 00:11:51;;;;;;;35.13;26.90;;;17.70;99.90;;;19.14;77.00;94580.22;5021914;28;20414;-74
2021/07/18 00:14:17;;;;;;;32.63;26.50;;;17.70;99.90;;;19.14;77.12;94569.47;5029679;28;20590;-72
2021/07/18 00:16:47;;;;;;;29.83;23.67;;;17.80;99.90;;;19.21;77.18;94580.59;5017076;28;20209;-74
2021/07/18 00:19:13;;;;;;;28.07;24.33;;;17.80;99.90;;;19.17;77.38;94563.47;5058496;28;20690;-74
2021/07/18 00:21:43;;;;;;;29.53;26.43;;;17.80;99.90;;;19.14;77.14;94564.09;5027103;28;20207;-74
2021/07/18 00:24:12;;;;;;;33.20;27.10;;;17.80;99.90;;;19.03;77.37;94565.41;5024939;28;20184;-74
2021/07/18 00:26:40;;;;;;;32.53;27.93;;;17.70;99.90;;;19.09;77.52;94571.47;5037905;28;20540;-73
2021/07/18 00:29:11;;;;;;;33.53;26.97;;;17.70;99.90;;;19.12;77.43;94566.28;5029878;28;20952;-73
2021/07/18 00:31:37;;;;;;;31.93;26.57;;;17.70;99.90;;;19.19;77.28;94563.19;5039690;28;20667;-74
2021/07/18 00:34:03;;;;;;;35.33;28.37;;;17.80;99.90;;;19.15;77.52;94557.63;5024946;28;20725;-74
2021/07/18 00:36:31;;;;;;;31.03;27.17;;;17.80;99.90;;;19.21;77.58;94561.78;5026687;28;20228;-74
2021/07/18 00:38:57;;;;;;;31.23;27.83;;;17.90;99.90;;;19.25;77.43;94554.72;5010518;28;20567;-74
2021/07/18 00:41:23;;;;;;;34.10;25.87;;;17.90;99.90;;;19.18;77.64;94545.47;5028420;28;20273;-75
2021/07/18 00:43:49;;;;;;;29.83;26.57;;;17.90;99.90;;;19.29;77.75;94554.91;5045001;28;20223;-74
2021/07/18 00:46:17;;;;;;;29.50;25.70;;;17.90;99.90;;;19.21;77.62;94542.97;5035976;28;20200;-74
2021/07/18 00:48:44;;;;;;;27.03;24.13;;;17.70;99.90;;;19.21;77.72;94552.91;5040761;28;20183;-74
2021/07/18 00:51:12;;;;;;;30.33;26.00;;;;;;;19.22;77.61;94541.88;5018017;28;20207;-73
2021/07/18 00:53:38;;;;;;;30.23;25.20;;;17.90;99.90;;;19.26;77.74;94542.06;5022467;28;20205;-73
2021/07/18 00:56:04;;;;;;;30.97;26.63;;;18.00;99.90;;;19.24;77.91;94531.63;5029594;28;20197;-74
2021/07/18 00:58:31;;;;;;;29.40;26.20;;;18.00;99.90;;;19.30;77.68;94538.50;5026182;28;20232;-74
2021/07/18 01:01:00;;;;;;;29.47;26.13;;;18.00;99.90;;;19.33;77.89;94543.25;5022024;28;20226;-74
2021/07/18 01:03:27;;;;;;;29.80;26.60;;;18.00;99.90;;;19.34;77.96;94536.00;5027175;28;20210;-73
2021/07/18 01:05:56;;;;;;;31.63;27.70;;;18.00;99.90;;;19.31;77.78;94534.69;5040813;28;20218;-72
2021/07/18 01:08:22;;;;;;;31.73;27.27;;;18.00;99.90;;;19.29;77.94;94534.19;5011259;28;20260;-73
2021/07/18 01:10:49;;;;;;;33.07;27.40;;;18.00;99.90;;;19.34;78.13;94536.75;5008013;28;20226;-73
2021/07/18 01:13:17;;;;;;;29.83;26.60;;;18.00;99.90;;;19.35;78.20;94541.06;5023313;28;20232;-73
2021/07/18 01:15:46;;;;;;;30.53;27.23;;;18.00;99.90;;;19.34;78.14;94528.69;5029461;28;20631;-75
2021/07/18 01:18:17;;;;;;;30.53;26.83;;;18.10;99.90;;;19.40;78.11;94532.91;5019725;28;20291;-74
2021/07/18 01:20:45;;;;;;;29.37;25.50;;;18.10;99.90;;;19.39;78.20;94531.28;5026668;28;20216;-72
2021/07/18 01:23:11;;;;;;;26.77;23.83;;;18.10;99.90;;;19.30;78.24;94522.38;5017016;28;20206;-74
2021/07/18 01:25:38;;;;;;;27.33;24.30;;;18.00;99.90;;;19.31;78.33;94526.63;5026254;28;20252;-74
2021/07/18 01:28:11;;;;;;;29.47;23.03;;;18.00;99.90;;;19.32;78.04;94535.47;5027081;28;20193;-74
2021/07/18 01:30:37;;;;;;;25.90;22.87;;;18.10;99.90;;;19.35;78.30;94526.81;5025125;28;20187;-75
2021/07/18 01:33:04;;;;;;;29.13;22.90;;;18.10;99.90;;;19.39;78.18;94522.41;5025887;28;20211;-74
2021/07/18 01:35:30;;;;;;;25.80;23.00;;;18.10;99.90;;;19.33;78.34;94537.09;5023131;28;20302;-74
2021/07/18 01:37:57;;;;;;;30.77;26.10;;;18.00;99.90;;;19.37;78.41;94536.16;5023195;28;20643;-74
2021/07/18 01:40:28;;;;;;;35.10;28.27;;;18.00;99.90;;;19.34;78.23;94539.44;5041609;28;20222;-74
2021/07/18 01:42:56;;;;;;;34.70;27.07;;;18.00;99.90;;;19.34;78.50;94533.31;5014006;28;20981;-75
2021/07/18 01:45:25;;;;;;;38.00;30.63;;;18.00;99.90;;;19.16;78.61;94529.66;5012171;28;20634;-75
2021/07/18 01:47:52;;;;;;;33.97;29.87;;;17.80;99.90;;;19.15;78.60;94530.75;5008703;28;20203;-74
2021/07/18 01:50:18;;;;;;;36.17;31.70;;;17.80;99.90;;;19.16;78.66;94539.59;5023173;28;20191;-74
2021/07/18 01:52:45;;;;;;;42.67;32.17;;;17.80;99.90;;;19.09;78.44;94537.34;5033126;28;20261;-74
2021/07/18 01:55:18;;;;;;;46.43;34.37;;;17.70;99.90;;;19.09;78.35;94541.91;5009331;28;20643;-74
2021/07/18 01:57:44;;;;;;;45.13;33.43;;;17.70;99.90;;;19.06;78.63;94527.19;5024508;28;20522;-74
2021/07/18 02:00:12;;;;;;;47.73;34.73;;;17.70;99.90;;;19.05;78.77;94535.53;5041512;28;20286;-73
2021/07/18 02:02:47;;;;;;;40.83;33.00;;;17.70;99.90;;;19.09;78.67;94544.59;5025558;28;20195;-74
2021/07/18 02:05:17;;;;;;;46.70;33.40;;;17.70;99.90;;;19.01;78.81;94546.09;5022216;28;20251;-75
2021/07/18 02:07:45;;;;;;;42.73;33.30;;;17.60;99.90;;;19.06;78.89;94537.94;5028992;28;20283;-74
2021/07/18 02:10:12;;;;;;;44.23;34.03;;;17.60;99.90;;;19.05;78.80;94530.97;5022343;28;20234;-74
2021/07/18 02:12:39;;;;;;;44.10;35.07;;;17.60;99.90;;;19.03;78.97;94529.69;5026890;28;20196;-74
2021/07/18 02:15:13;;;;;;;50.10;36.83;;;17.60;99.90;;;19.01;79.02;94546.09;5021922;28;20283;-73
2021/07/18 02:17:39;;;;;;;49.87;37.33;;;17.60;99.90;;;19.04;78.98;94532.06;5048419;28;20251;-73
2021/07/18 02:20:13;;;;;;;49.70;36.30;;;17.60;99.90;;;19.13;78.89;94545.59;5029121;28;20264;-74
2021/07/18 02:22:49;;;;;;;47.97;35.80;;;17.70;99.90;;;19.12;79.51;94547.47;5022561;28;20558;-74
2021/07/18 02:25:18;;;;;;;49.97;37.00;;;17.70;99.90;;;19.12;79.20;94531.34;5035048;28;20194;-74
2021/07/18 02:27:45;;;;;;;44.10;34.27;;;17.70;99.90;;;19.20;79.00;94540.59;5024395;28;20207;-72
2021/07/18 02:30:21;;;;;;;39.27;32.07;;;17.80;99.90;;;19.15;79.23;94543.38;5020126;28;20230;-74
2021/07/18 02:32:48;;;;;;;38.57;31.50;;;17.70;99.90;;;19.12;79.31;94544.78;5006070;28;20201;-74
2021/07/18 02:35:16;;;;;;;41.90;31.60;;;17.80;99.90;;;19.03;79.33;94541.22;5019003;28;20217;-74
2021/07/18 02:37:46;;;;;;;45.57;32.37;;;17.70;99.90;;;19.01;79.41;94529.97;5020225;28;20689;-73
2021/07/18 02:40:17;;;;;;;44.47;33.90;;;18.00;99.90;;;18.98;79.02;94544.00;5014376;28;20549;-74
2021/07/18 02:42:45;;;;;;;45.20;32.97;;;;;;;18.99;79.42;94540.25;5021296;28;20232;-74
2021/07/18 02:45:20;;;;;;;42.53;33.27;;;18.60;99.90;;;18.98;79.41;94545.91;5020469;28;20194;-74
2021/07/18 02:47:47;;;;;;;42.60;32.30;;;17.60;99.90;;;18.95;79.53;94542.72;5020561;28;20589;-74
2021/07/18 02:50:17;;;;;;;44.03;32.23;;;17.50;99.90;;;19.03;79.33;94551.19;5021712;28;20200;-73
2021/07/18 02:52:44;;;;;;;37.17;31.20;;;17.50;99.90;;;19.03;79.53;94546.59;5005060;28;20302;-72
2021/07/18 02:55:14;;;;;;;42.40;32.20;;;17.60;99.90;;;19.03;79.40;94538.53;5022408;28;20196;-74
2021/07/18 02:57:43;;;;;;;36.20;29.77;;;17.50;99.90;;;18.94;79.54;94541.13;5015906;28;20634;-73
2021/07/18 03:00:17;;;;;;;41.10;31.73;;;17.50;99.90;;;18.91;79.46;94539.03;5013802;28;20210;-73
2021/07/18 03:02:46;;;;;;;36.37;31.00;;;17.40;99.90;;;18.91;79.66;94533.66;5027977;28;20203;-74
2021/07/18 03:05:14;;;;;;;36.23;30.83;;;17.40;99.90;;;18.89;79.75;94535.06;5017620;28;20200;-72
2021/07/18 03:07:43;;;;;;;35.87;29.30;;;17.40;99.90;;;18.85;79.72;94539.44;5019554;28;20206;-72
2021/07/18 03:10:11;;;;;;;35.00;29.07;;;17.40;99.90;;;18.86;79.72;94544.53;5021957;28;20191;-72
2021/07/18 03:12:37;;;;;;;35.10;28.53;;;17.40;99.90;;;18.86;79.58;94541.06;5016773;28;20911;-72
2021/07/18 03:15:14;;;;;;;35.13;29.40;;;17.40;99.90;;;18.99;79.66;94534.88;5024010;28;20208;-72
2021/07/18 03:17:41;;;;;;;40.17;30.07;;;17.50;99.90;;;18.91;79.91;94530.19;5005303;28;20215;-73
2021/07/18 03:20:13;;;;;;;36.80;28.43;;;17.40;99.90;;;18.91;79.86;94540.94;5020416;28;20303;-73
2021/07/18 03:22:43;;;;;;;36.40;28.20;;;17.40;99.90;;;18.91;79.74;94544.41;5024985;28;20188;-73
2021/07/18 03:25:11;;;;;;;37.20;27.70;;;17.50;99.90;;;18.85;79.74;94540.25;5019086;28;20268;-73
2021/07/18 03:27:41;;;;;;;37.63;29.70;;;17.40;99.90;;;18.78;79.94;94541.75;5026137;28;20190;-73
2021/07/18 03:30:10;;;;;;;37.13;29.37;;;17.30;99.90;;;18.72;79.85;94551.00;5018575;28;20204;-71
2021/07/18 03:32:39;;;;;;;41.23;31.20;;;17.30;99.90;;;18.74;80.03;94541.53;5022812;28;20197;-73
2021/07/18 03:35:07;;;;;;;42.20;30.27;;;17.30;99.90;;;18.75;79.93;94548.50;5025895;28;20204;-72
2021/07/18 03:37:37;;;;;;;38.27;28.97;;;17.30;99.90;;;18.74;79.89;94546.13;5020813;28;20194;-73
2021/07/18 03:40:10;;;;;;;34.13;27.93;;;17.30;99.90;;;18.73;80.09;94544.53;5008012;28;20226;-71
2021/07/18 03:42:39;;;;;;;36.80;28.07;;;17.30;99.90;;;18.76;80.02;94541.25;5016228;28;20188;-73
2021/07/18 03:45:07;;;;;;;38.00;29.50;;;17.20;99.90;;;18.73;79.98;94539.16;5009033;28;20615;-73
2021/07/18 03:47:36;;;;;;;33.13;27.50;;;17.20;99.90;;;18.76;80.16;94534.00;5022232;28;20222;-73
2021/07/18 03:50:04;;;;;;;33.70;26.90;;;17.30;99.90;;;18.70;79.89;94537.09;5026582;28;20566;-73
2021/07/18 03:52:32;;;;;;;31.73;28.23;;;17.30;99.90;;;18.68;79.95;94531.19;5026297;28;20202;-73
2021/07/18 03:54:58;;;;;;;34.10;28.00;;;17.20;99.90;;;18.70;80.20;94532.50;5025705;28;20202;-71
2021/07/18 03:57:24;;;;;;;31.13;25.47;;;17.20;99.90;;;18.64;80.05;94527.50;5019382;28;20209;-73
2021/07/18 03:59:51;;;;;;;33.23;25.37;;;17.20;99.90;;;18.64;80.14;94535.56;5011546;28;20236;-72
2021/07/18 04:02:23;;;;;;;30.80;25.20;;;17.20;99.90;;;18.72;80.25;94542.94;5031434;28;20218;-73
2021/07/18 04:04:54;;;;;;;30.33;24.93;;;17.20;99.90;;;18.63;80.11;94526.75;5027093;28;20207;-73
2021/07/18 04:07:23;;;;;;;31.33;24.33;;;17.20;99.90;;;18.62;80.30;94532.41;5023943;28;20846;-73
2021/07/18 04:09:49;;;;;;;27.67;24.37;;;17.20;99.90;;;18.61;80.22;94526.22;5025331;28;20264;-72
2021/07/18 04:12:14;;;;;;;29.57;23.27;;;17.20;99.90;;;18.61;80.10;94538.84;5018928;28;20699;-72
2021/07/18 04:14:40;;;;;;;28.90;22.47;;;17.10;99.90;;;18.59;80.12;94535.69;5015867;28;20221;-74
2021/07/18 04:17:08;;;;;;;27.00;23.57;;;17.10;99.90;;;18.65;80.39;94542.53;5027301;28;20211;-74
2021/07/18 04:19:35;;;;;;;31.00;22.73;;;17.10;99.90;;;18.62;80.40;94543.13;5022669;28;20214;-73
2021/07/18 04:22:06;;;;;;;30.47;23.73;;;;;;;18.52;80.27;94541.44;5025429;28;20580;-72
2021/07/18 04:24:36;;;;;;;26.60;21.37;;;17.10;99.90;;;18.54;80.38;94546.50;5025400;28;20206;-73
2021/07/18 04:27:02;;;;;;;28.40;23.03;;;16.90;99.90;;;18.64;80.37;94546.31;5024108;28;20214;-72
2021/07/18 04:29:30;;;;;;;26.83;21.63;;;17.20;99.90;;;18.63;80.53;94542.06;5020116;28;20199;-72
2021/07/18 04:31:56;;;;;;;23.47;20.77;;;17.20;99.90;;;18.64;80.33;94551.69;5038364;28;20266;-72
2021/07/18 04:34:22;;;;;;;27.23;20.37;;;17.50;99.90;;;18.76;80.47;94549.31;5023528;28;20641;-72
2021/07/18 04:36:48;;;;;;;26.27;19.83;;;17.30;99.90;;;18.79;80.32;94554.88;5032123;28;20238;-73
2021/07/18 04:39:14;;;;;;;23.83;20.23;;;17.30;99.90;;;18.84;80.39;94557.44;5025524;28;20220;-74
2021/07/18 04:41:43;;;;;;;22.33;19.90;;;17.40;99.90;;;18.84;80.43;94556.66;5022918;28;20237;-73
2021/07/18 04:44:09;;;;;;;22.20;19.80;;;17.30;99.90;;;18.81;80.31;94552.69;5031582;28;20189;-73
2021/07/18 04:46:37;;;;;;;22.00;19.30;;;17.30;99.90;;;18.84;80.39;94546.72;5015318;28;20772;-74
2021/07/18 04:49:03;;;;;;;20.27;17.93;;;17.40;99.90;;;18.90;80.57;94563.53;5010889;28;20701;-72
2021/07/18 04:51:30;;;;;;;21.23;18.27;;;17.40;99.90;;;18.95;80.35;94561.53;5019520;28;20191;-72
2021/07/18 04:53:56;;;;;;;20.10;17.97;;;17.50;99.90;;;19.03;80.34;94561.94;5016614;28;20202;-71
2021/07/18 04:56:22;;;;;;;24.53;19.53;;;17.50;99.90;;;19.13;80.51;94567.09;5022374;28;20187;-71
2021/07/18 04:58:51;;;;;;;22.20;18.67;;;17.70;99.90;;;19.10;80.44;94568.50;5017567;28;20920;-73
2021/07/18 05:01:17;;;;;;;20.53;17.87;;;17.60;99.90;;;19.07;80.50;94562.94;5037650;28;20516;-72
2021/07/18 05:03:43;;;;;;;19.50;17.47;;;17.70;99.90;;;19.14;80.47;94566.78;5025251;28;20195;-72
2021/07/18 05:06:09;;;;;;;20.43;18.00;;;17.70;99.90;;;19.24;80.45;94569.25;5009335;28;20195;-72
2021/07/18 05:08:35;;;;;;;24.17;18.10;;;17.80;99.90;;;19.31;80.51;94561.56;5010935;28;20895;-71
2021/07/18 05:11:03;;;;;;;25.80;19.30;;;17.90;99.90;;;19.41;80.29;94561.38;5023204;28;20191;-70
2021/07/18 05:13:29;;;;;;;18.67;16.77;;;18.00;99.90;;;19.59;80.30;94564.22;5031853;28;20529;-72
2021/07/18 05:15:55;;;;;;;20.67;16.33;;;18.20;99.90;;;19.64;80.37;94564.88;5002592;28;20278;-71
2021/07/18 05:18:23;;;;;;;22.43;16.43;;;18.30;99.90;;;19.72;80.34;94566.06;5022231;28;20192;-72
2021/07/18 05:20:49;;;;;;;19.53;16.20;;;18.40;99.90;;;19.56;80.44;94556.75;5032140;28;20240;-71
2021/07/18 05:23:18;;;;;;;17.67;15.87;;;18.30;99.90;;;19.60;80.38;94584.63;5019673;28;20493;-71
2021/07/18 05:25:46;;;;;;;20.93;15.80;;;18.30;99.90;;;19.61;80.54;94570.09;5014542;28;20691;-71
2021/07/18 05:28:12;;;;;;;17.70;14.97;;;18.30;99.90;;;19.59;80.48;94569.59;5021673;28;20193;-72
2021/07/18 05:30:38;;;;;;;16.97;14.97;;;18.30;99.90;;;19.66;80.33;94580.72;5040846;28;20199;-73
2021/07/18 05:33:04;;;;;;;19.63;16.83;;;18.30;99.90;;;19.80;80.43;94578.78;5024537;28;20204;-73
2021/07/18 05:35:30;;;;;;;20.90;14.67;;;18.50;99.90;;;19.83;80.30;94562.03;5026287;28;20211;-73
2021/07/18 05:37:56;;;;;;;17.33;15.53;;;18.50;99.90;;;19.84;80.32;94569.78;5007884;28;20200;-72
2021/07/18 05:40:23;;;;;;;20.80;15.47;;;18.60;99.90;;;19.87;80.40;94568.41;5009873;28;20220;-73
2021/07/18 05:42:50;;;;;;;18.27;14.27;;;18.60;99.90;;;19.98;80.33;94564.34;5028944;28;20216;-72
2021/07/18 05:45:16;;;;;;;19.40;14.40;;;18.70;99.90;;;20.13;80.09;94572.06;5041334;28;20570;-72
2021/07/18 05:47:44;;;;;;;15.30;13.07;;;18.80;99.90;;;20.33;80.31;94560.81;5013325;28;20653;-73
2021/07/18 05:50:15;;;;;;;15.23;12.83;;;19.00;99.90;;;20.37;80.37;94577.13;5005773;28;20196;-72
2021/07/18 05:52:43;;;;;;;16.07;12.80;;;19.00;99.90;;;20.40;80.27;94561.16;5015127;28;20199;-72
2021/07/18 05:55:11;;;;;;;17.40;13.63;;;19.20;99.90;;;20.43;80.12;94573.19;5020613;28;20199;-72
2021/07/18 05:57:37;;;;;;;18.63;12.90;;;19.20;99.90;;;20.69;80.08;94574.13;5009693;28;20199;-72
2021/07/18 06:00:11;;;;;;;17.67;12.90;;;19.50;99.90;;;20.81;80.16;94581.63;5015758;28;20642;-71
2021/07/18 06:02:39;;;;;;;13.40;12.00;;;19.60;99.90;;;20.58;80.05;94556.66;5028958;28;20341;-72
2021/07/18 06:05:06;;;;;;;16.07;12.40;;;19.50;99.90;;;20.46;80.09;94573.38;5019647;28;20640;-73
2021/07/18 06:07:32;;;;;;;17.23;12.83;;;19.40;99.90;;;20.58;79.94;94572.81;5038020;28;20196;-72
2021/07/18 06:09:58;;;;;;;13.47;12.00;;;19.70;99.90;;;20.89;79.78;94587.03;5032729;28;20194;-72
2021/07/18 06:12:26;;;;;;;14.57;11.17;;;20.10;99.90;;;20.96;80.07;94573.91;5013686;28;20767;-72
2021/07/18 06:14:52;;;;;;;12.47;11.17;;;20.20;99.90;;;21.10;79.56;94563.03;5010769;28;20199;-73
2021/07/18 06:17:18;;;;;;;15.57;11.87;;;20.30;99.90;;;21.19;79.52;94563.03;5022314;28;20213;-72
2021/07/18 06:19:44;;;;;;;11.50;10.33;;;20.10;99.90;;;21.22;79.73;94571.28;5007787;28;20227;-72
2021/07/18 06:22:12;;;;;;;12.87;10.17;;;20.20;99.90;;;21.87;79.43;94579.28;5024773;28;20200;-72
2021/07/18 06:24:40;;;;;;;15.60;9.80;;;20.60;99.90;;;22.74;79.38;94599.69;5018471;28;20195;-72
2021/07/18 06:27:07;;;;;;;11.40;9.00;;;21.30;99.90;;;23.51;78.97;94598.56;5017179;28;20608;-73
2021/07/18 06:29:34;;;;;;;11.63;9.33;;;22.20;99.90;;;23.86;79.36;94550.38;5006149;28;20200;-71
2021/07/18 06:32:00;;;;;;;10.17;8.53;;;22.70;99.90;;;24.77;78.77;94611.69;5019811;28;20506;-71
2021/07/18 06:34:26;;;;;;;12.47;8.07;;;23.60;99.90;;;26.15;78.54;94622.31;5012102;28;20188;-72
2021/07/18 06:36:54;;;;;;;11.63;8.27;;;24.90;99.90;;;26.67;77.94;94548.78;5016687;28;20221;-72
2021/07/18 06:39:25;;;;;;;9.43;7.70;;;25.80;99.90;;;27.34;77.94;94569.53;5018048;28;20208;-70
2021/07/18 06:41:51;;;;;;;10.90;7.70;;;26.50;99.90;;;27.56;77.48;94579.03;5021024;28;20197;-71
2021/07/18 06:44:17;;;;;;;11.10;7.23;;;27.10;99.90;;;28.02;77.57;94522.78;4986239;28;20806;-72
2021/07/18 06:46:44;;;;;;;10.40;7.70;;;27.60;99.90;;;27.35;77.20;94565.66;5023025;28;20248;-73
2021/07/18 06:49:10;;;;;;;10.10;7.20;;;27.10;99.90;;;27.72;76.65;94601.56;5008891;28;20195;-70
2021/07/18 06:51:38;;;;;;;9.83;7.20;;;27.50;99.90;;;26.98;76.67;94531.72;5016830;28;20720;-72
2021/07/18 06:54:04;;;;;;;10.07;8.13;;;27.10;99.90;;;25.95;76.73;94490.91;5024455;28;20208;-71
2021/07/18 06:56:31;;;;;;;10.23;8.10;;;26.30;99.90;;;25.13;76.48;94524.13;5016126;28;20188;-70
2021/07/18 06:59:01;;;;;;;13.07;7.80;;;25.40;99.90;;;24.68;76.13;94559.47;5015848;28;20649;-69
2021/07/18 07:01:27;;;;;;;9.47;8.47;;;24.70;99.90;;;23.81;76.07;94542.44;5021846;28;20632;-69
2021/07/18 07:03:53;;;;;;;12.20;8.93;;;23.70;99.90;;;23.33;76.09;94570.00;5018306;28;20308;-70
2021/07/18 07:06:19;;;;;;;9.10;8.20;;;22.90;99.90;;;23.22;75.89;94569.59;5023212;28;20193;-70
2021/07/18 07:08:47;;;;;;;9.80;8.80;;;22.60;99.90;;;23.32;75.59;94571.13;5045316;28;20564;-71
2021/07/18 07:11:14;;;;;;;12.70;9.70;;;22.50;99.90;;;23.27;75.65;94565.91;5018932;28;20231;-71
2021/07/18 07:13:40;;;;;;;10.83;8.50;;;22.40;99.90;;;24.20;75.04;94606.19;5007180;28;20204;-71
2021/07/18 07:16:06;;;;;;;10.00;8.23;;;23.00;99.90;;;24.64;75.41;94534.16;5022995;28;20196;-71
2021/07/18 07:18:34;;;;;;;12.03;8.60;;;23.60;99.90;;;24.64;75.20;94580.25;5013939;28;20202;-71
2021/07/18 07:21:00;;;;;;;10.87;8.50;;;23.50;99.90;;;24.92;75.23;94545.94;5008144;28;20224;-71
2021/07/18 07:23:28;;;;;;;13.37;8.90;;;23.90;99.90;;;24.90;75.18;94519.19;5014131;28;20599;-73
2021/07/18 07:25:56;;;;;;;9.67;8.63;;;24.10;99.90;;;24.71;74.92;94526.25;5028996;28;20200;-72
2021/07/18 07:28:22;;;;;;;10.93;8.87;;;24.00;99.90;;;24.24;74.71;94591.63;5028950;28;20192;-72
2021/07/18 07:30:49;;;;;;;11.77;8.90;;;23.50;99.90;;;23.78;74.69;94534.97;5034362;28;20280;-74
2021/07/18 07:33:19;;;;;;;10.77;9.07;;;23.10;99.90;;;23.39;74.30;94588.41;5028395;28;20196;-72
2021/07/18 07:35:46;;;;;;;10.53;8.93;;;22.70;99.90;;;23.54;74.30;94568.13;5011381;28;20306;-73
2021/07/18 07:38:13;;;;;;;9.60;8.60;;;22.70;99.90;;;23.62;74.52;94571.91;5024043;28;20224;-72
2021/07/18 07:40:39;;;;;;;15.00;9.37;;;22.70;99.90;;;23.66;74.03;94559.28;5027947;28;20211;-72
2021/07/18 07:43:08;;;;;;;13.00;9.33;;;22.70;99.90;;;23.46;74.11;94569.00;5022294;28;20311;-71
2021/07/18 07:45:34;;;;;;;12.40;9.50;;;22.60;99.90;;;23.67;74.15;94586.03;5039196;28;20196;-73
2021/07/18 07:48:00;;;;;;;11.23;9.20;;;22.60;99.90;;;24.26;73.86;94594.81;5004080;28;20195;-73
2021/07/18 07:50:26;;;;;;;11.27;8.67;;;23.10;99.90;;;24.47;73.77;94598.28;5025963;28;20656;-73
2021/07/18 07:52:52;;;;;;;11.13;8.50;;;23.30;99.90;;;26.39;73.58;94659.53;5025083;28;20227;-74
2021/07/18 07:55:18;;;;;;;9.63;7.30;;;24.90;99.90;;;28.43;72.94;94653.00;5022288;28;20199;-71
2021/07/18 07:57:44;;;;;;;10.70;6.73;;;29.00;99.90;;;30.10;72.59;94615.72;5011190;28;20668;-72
2021/07/18 08:00:14;;;;;;;10.87;6.67;;;29.70;99.90;;;29.36;72.67;94500.63;5011318;28;20216;-73
2021/07/18 08:02:40;;;;;;;10.70;7.10;;;29.30;99.90;;;28.75;72.19;94502.75;5011276;28;20226;-71
2021/07/18 08:05:09;;;;;;;10.23;7.33;;;29.00;99.90;;;28.17;72.37;94548.41;5025607;28;20226;-71
2021/07/18 08:07:37;;;;;;;10.17;6.80;;;28.50;99.90;;;29.60;71.93;94627.06;5022123;28;20276;-72
2021/07/18 08:10:10;;;;;;;12.50;7.10;;;29.30;99.90;;;30.64;70.99;94671.94;5006451;28;20208;-71
2021/07/18 08:12:39;;;;;;;8.80;6.63;;;30.40;99.90;;;32.09;70.23;94698.09;5005652;28;20703;-72
2021/07/18 08:15:10;;;;;;;8.53;5.90;;;31.70;99.90;;;33.22;70.30;94669.25;5027439;28;20193;-71
2021/07/18 08:17:37;;;;;;;9.23;6.20;;;33.20;99.90;;;33.46;69.81;94462.28;5017157;28;20299;-71
2021/07/18 08:20:13;;;;;;;9.90;6.40;;;34.30;99.90;;;31.62;69.42;94485.81;5004143;28;20535;-72
2021/07/18 08:22:39;;;;;;;8.10;5.77;;;32.70;99.90;;;31.84;68.99;94530.56;5026761;28;20701;-72
2021/07/18 08:25:07;;;;;;;12.07;6.53;;;32.50;99.90;;;30.78;69.09;94503.16;5022819;28;20222;-71
2021/07/18 08:27:37;;;;;;;8.77;6.23;;;31.70;99.90;;;29.72;68.34;94548.38;5020318;28;20683;-72
2021/07/18 08:30:10;;;;;;;9.30;6.77;;;30.50;99.90;;;28.33;68.78;94509.00;5027546;28;20271;-71
2021/07/18 08:32:36;;;;;;;8.67;6.87;;;29.00;99.90;;;27.66;68.23;94509.56;5020625;28;20197;-71
2021/07/18 08:35:04;;;;;;;11.00;6.70;;;28.00;99.90;;;27.86;67.77;94573.84;5021101;28;20189;-71
2021/07/18 08:37:30;;;;;;;7.23;6.37;;;27.80;99.90;;;27.59;68.27;94534.72;5011872;28;20198;-71
2021/07/18 08:39:56;;;;;;;9.43;6.47;;;27.60;99.90;;;28.60;67.65;94586.28;5026167;28;20267;-72
2021/07/18 08:42:23;;;;;;;8.27;6.30;;;28.30;99.90;;;28.56;67.51;94554.63;5007448;28;20745;-71
2021/07/18 08:44:49;;;;;;;9.23;6.77;;;28.10;99.90;;;29.47;67.08;94605.41;5024465;28;20192;-71
2021/07/18 08:47:21;;;;;;;8.07;6.37;;;28.90;99.90;;;31.06;66.85;94557.41;5010008;28;20280;-71
2021/07/18 08:49:47;;;;;;;8.13;6.73;;;30.50;99.90;;;31.12;66.80;94514.81;5000397;28;20282;-72
2021/07/18 08:52:14;;;;;;;7.60;5.97;;;31.10;99.90;;;31.68;66.08;94650.75;5018661;28;20268;-71
2021/07/18 08:54:40;;;;;;;6.80;5.77;;;31.50;99.90;;;31.27;66.22;94538.41;5021710;28;20282;-72
2021/07/18 08:57:07;;;;;;;8.00;5.60;;;31.60;99.90;;;32.29;65.40;94527.28;5019773;28;20204;-71
2021/07/18 08:59:35;;;;;;;6.13;5.10;;;32.80;99.90;;;32.33;65.13;94489.66;5018081;28;20558;-72
2021/07/18 09:02:02;;;;;;;8.53;5.83;;;33.00;99.90;;;31.86;64.99;94518.06;5022776;28;20688;-71
2021/07/18 09:04:31;;;;;;;7.73;5.63;;;32.40;99.90;;;32.21;64.98;94561.34;4990481;28;20212;-72
2021/07/18 09:07:10;;;;;;;8.17;5.33;;;32.40;99.90;;;32.66;64.83;94561.94;5014471;28;20224;-72
2021/07/18 09:09:36;;;;;;;8.67;5.40;;;32.90;99.90;;;33.99;63.58;94646.53;5023579;28;20195;-72
2021/07/18 09:12:09;;;;;;;5.50;4.97;;;34.10;99.90;;;35.01;63.33;94639.16;5016890;28;20209;-71
2021/07/18 09:14:46;;;;;;;6.15;5.18;;;35.50;99.90;;;36.44;62.17;94726.84;5009067;28;21446;-72
2021/07/18 09:17:21;;;;;;;7.38;5.07;;;36.70;99.40;;;37.12;61.97;94527.81;5008047;28;20220;-71
2021/07/18 09:19:48;;;;;;;6.93;5.25;;;38.00;96.50;;;35.80;61.85;94477.41;5020834;28;20216;-71
2021/07/18 09:22:23;;;;;;;7.20;5.25;;;37.10;96.00;;;35.26;61.22;94539.75;5022319;28;20591;-70
2021/07/18 09:24:58;;;;;;;5.68;4.85;;;36.60;95.90;;;36.64;60.46;94627.59;5017037;28;20188;-70
2021/07/18 09:27:33;;;;;;;7.45;4.20;;;37.80;94.20;;;38.43;59.80;94642.72;5001473;28;20193;-70
2021/07/18 09:30:18;;;;;;;5.15;4.60;;;39.80;92.50;;;37.84;59.34;94620.34;5004869;28;20207;-70
2021/07/18 09:32:48;;;;;;;6.57;4.95;;;39.80;90.90;;;36.87;59.71;94383.63;5007155;28;20214;-71
2021/07/18 09:35:19;;;;;;;5.28;4.80;;;39.30;88.20;;;36.90;58.90;94530.09;5015956;28;20686;-70
2021/07/18 09:37:51;;;;;;;6.30;4.80;;;38.90;89.10;;;35.22;59.05;94426.75;5017202;28;20545;-71
2021/07/18 09:40:24;;;;;;;7.75;4.90;;;37.30;88.50;;;35.90;58.10;94601.50;5015423;28;21802;-70
2021/07/18 09:42:54;;;;;;;7.65;4.85;;;37.60;91.20;;;34.97;57.84;94468.28;5045116;28;20193;-72
2021/07/18 09:45:22;;;;;;;9.18;5.47;;;37.00;90.40;;;34.52;57.38;94550.03;5016506;28;20657;-71
2021/07/18 09:47:53;;;;;;;6.20;4.50;;;36.40;97.60;;;35.67;56.96;94597.78;5013214;28;20238;-71
2021/07/18 09:50:26;;;;;;;5.78;4.65;;;37.00;91.70;;;37.08;56.65;94606.50;5013966;28;20224;-71
2021/07/18 09:53:08;;;;;;;5.30;4.80;;;38.10;89.50;;;35.68;56.78;94475.19;5031033;28;20207;-70
2021/07/18 09:55:34;;;;;;;6.50;5.10;;;37.90;87.40;;;34.07;56.01;94453.84;5020509;28;20200;-71
2021/07/18 09:58:04;;;;;;;6.97;4.75;;;36.20;89.90;;;33.00;56.04;94536.50;5021704;28;20248;-71
2021/07/18 10:00:43;;;;;;;7.88;4.25;;;34.60;92.10;;;33.46;56.20;94514.53;5007107;28;20672;-71
2021/07/18 10:03:23;;;;;;;7.72;4.60;;;34.50;92.70;;;32.95;55.55;94487.44;5021280;28;21476;-71
2021/07/18 10:06:12;;;;;;;6.73;4.93;;;34.00;94.40;;;31.49;55.63;94503.72;5021492;28;20192;-72
2021/07/18 10:08:46;;;;;;;6.57;4.80;;;32.50;94.90;;;32.50;54.92;94552.03;5045003;28;20204;-71
2021/07/18 10:11:18;;;;;;;6.10;4.30;;;32.70;95.50;;;32.83;55.38;94541.97;5051289;28;20875;-71
2021/07/18 10:13:48;;;;;;;4.93;4.30;;;32.90;94.50;;;34.62;54.78;94658.63;5017688;28;20200;-72
2021/07/18 10:16:17;;;;;;;5.27;4.13;;;34.60;92.60;;;34.89;54.68;94507.31;5021007;28;20201;-71